KMHS

Mount Shasta Airport

Mount Shasta, California, USA
METAR KMHS 180656Z AUTO 00000KT 10SM BKN070 OVC085 07/01 A2986 RMK AO2 SLP124 T00670011
Observed Flight Rules
Feb-18 @ 06:56 UTC (21 minutes ago) Visual Flight Rules
Wind Visibility Clouds
Calm 10 miles
  • Broken at 7,000' AGL
  • Overcast at 8,500' AGL
Temperatures Readings
Current 7°C / 45°F
Dewpoint 1°C / 34°F
Humidity 66%
Altimeter 29.86" Hg
Pressure 1012.4 hPa
Elevation 1078
METAR KMHS 180656Z AUTO 00000KT 10SM BKN070 OVC085 07/01 A2986 RMK AO2 SLP124 T00670011
Observed Flight Rules
Feb-18 @ 06:56 UTC
(21 minutes ago)
VFR
Wind Visibility
Calm 10 miles
Clouds
  • Broken at 7,000' AGL
  • Overcast at 8,500' AGL
Temperature Dewpoint
7°C / 45°F 1°C / 34°F
Humidity Altimeter Pressure
66% 29.86" Hg 1012.4 hPa